EWG5WA EDDH-EKCH
Flight info
| Callsign | EWG5WA |
|---|---|
| Flight time | N/A |
| Altitude | 23000 |
| Route | LUGEG3G LUGEG P605 GESKA/N0372F220 Z711 MONAK |
| Aircraft | A21N/M-SDE2E3FGHIRWXY/LB1 |
Departure
| Time | 2026-05-04 19:01 |
|---|---|
| Airport | Hamburg Helmut Schmidt Airport (EDDH) |
Arrival
| Time | N/A |
|---|---|
| Airport | Copenhagen Kastrup Airport (EKCH) |
| Time | Latitude | Longitude | Altitude | Speed | Heading |
|---|---|---|---|---|---|
| 2026-05-04 18:31 | 53.63074 | 10.00368 | 54 ft | 0 kts | 94° |
| 2026-05-04 18:37 | 53.63074 | 10.00367 | 54 ft | 0 kts | 94° |
| 2026-05-04 18:45 | 53.63074 | 10.00366 | 54 ft | 0 kts | 94° |
| 2026-05-04 18:54 | 53.63074 | 10.00363 | 54 ft | 1 kts | 94° |
| 2026-05-04 18:55 | 53.63075 | 10.00335 | 51 ft | 3 kts | 96° |
| 2026-05-04 18:55 | 53.63080 | 10.00267 | 48 ft | 3 kts | 95° |
| 2026-05-04 18:55 | 53.63082 | 10.00236 | 48 ft | 3 kts | 110° |
| 2026-05-04 18:56 | 53.63092 | 10.00211 | 50 ft | 3 kts | 146° |
| 2026-05-04 18:56 | 53.63109 | 10.00195 | 47 ft | 3 kts | 146° |
| 2026-05-04 18:56 | 53.63111 | 10.00192 | 47 ft | 1 kts | 141° |
| 2026-05-04 18:58 | 53.63112 | 10.00192 | 47 ft | 1 kts | 141° |
| 2026-05-04 18:59 | 53.63109 | 10.00193 | 47 ft | 5 kts | 153° |
| 2026-05-04 18:59 | 53.63065 | 10.00189 | 42 ft | 8 kts | 216° |
| 2026-05-04 18:59 | 53.62992 | 10.00109 | 51 ft | 16 kts | 211° |
| 2026-05-04 18:59 | 53.62912 | 9.99968 | 52 ft | 18 kts | 238° |
| 2026-05-04 19:00 | 53.62866 | 9.99809 | 51 ft | 5 kts | 246° |
| 2026-05-04 19:00 | 53.62868 | 9.99743 | 47 ft | 7 kts | 319° |
| 2026-05-04 19:00 | 53.62921 | 9.99697 | 50 ft | 10 kts | 339° |
| 2026-05-04 19:00 | 53.63015 | 9.99622 | 51 ft | 34 kts | 334° |
| 2026-05-04 19:01 | 53.63439 | 9.99261 | 52 ft | 100 kts | 333° |
| 2026-05-04 19:01 | 53.64228 | 9.98574 | 56 ft | 152 kts | 333° |
| 2026-05-04 19:01 | 53.65199 | 9.97729 | 590 ft | 147 kts | 332° |
| 2026-05-04 19:01 | 53.66131 | 9.96963 | 1009 ft | 157 kts | 333° |
| 2026-05-04 19:02 | 53.67153 | 9.96089 | 1319 ft | 172 kts | 332° |
| 2026-05-04 19:02 | 53.68253 | 9.95128 | 1678 ft | 184 kts | 332° |
| 2026-05-04 19:02 | 53.69440 | 9.94101 | 1974 ft | 198 kts | 332° |
| 2026-05-04 19:02 | 53.70612 | 9.92807 | 2291 ft | 209 kts | 313° |
| 2026-05-04 19:03 | 53.71356 | 9.90644 | 2627 ft | 217 kts | 282° |
| 2026-05-04 19:03 | 53.71316 | 9.88047 | 3081 ft | 231 kts | 256° |
| 2026-05-04 19:03 | 53.70784 | 9.85413 | 3546 ft | 244 kts | 251° |
| 2026-05-04 19:03 | 53.70197 | 9.82671 | 4071 ft | 251 kts | 251° |
| 2026-05-04 19:04 | 53.69624 | 9.79908 | 4673 ft | 253 kts | 251° |
| 2026-05-04 19:04 | 53.69048 | 9.77094 | 5264 ft | 255 kts | 251° |
| 2026-05-04 19:04 | 53.68473 | 9.74258 | 5845 ft | 256 kts | 251° |
| 2026-05-04 19:04 | 53.67906 | 9.71400 | 6423 ft | 257 kts | 252° |
| 2026-05-04 19:05 | 53.67338 | 9.68521 | 6953 ft | 259 kts | 252° |
| 2026-05-04 19:05 | 53.66767 | 9.65628 | 7484 ft | 261 kts | 252° |
| 2026-05-04 19:05 | 53.66415 | 9.62611 | 8021 ft | 264 kts | 268° |
| 2026-05-04 19:05 | 53.66738 | 9.59558 | 8545 ft | 269 kts | 290° |
| 2026-05-04 19:06 | 53.67782 | 9.56918 | 9066 ft | 276 kts | 313° |
| 2026-05-04 19:06 | 53.69418 | 9.55169 | 9604 ft | 284 kts | 334° |
| 2026-05-04 19:06 | 53.71301 | 9.54043 | 10079 ft | 290 kts | 338° |
| 2026-05-04 19:06 | 53.73252 | 9.52939 | 10328 ft | 301 kts | 338° |
| 2026-05-04 19:07 | 53.75242 | 9.51781 | 10503 ft | 313 kts | 337° |
| 2026-05-04 19:07 | 53.77335 | 9.50539 | 10644 ft | 323 kts | 337° |
| 2026-05-04 19:07 | 53.79475 | 9.49253 | 10884 ft | 328 kts | 337° |
| 2026-05-04 19:07 | 53.81629 | 9.47945 | 11149 ft | 331 kts | 337° |
| 2026-05-04 19:08 | 53.83817 | 9.46608 | 11301 ft | 337 kts | 336° |
| 2026-05-04 19:08 | 53.86043 | 9.45243 | 11446 ft | 342 kts | 336° |
| 2026-05-04 19:08 | 53.88266 | 9.43882 | 11927 ft | 335 kts | 336° |
| 2026-05-04 19:08 | 53.90436 | 9.42550 | 12487 ft | 328 kts | 336° |
| 2026-05-04 19:09 | 53.92548 | 9.41250 | 12882 ft | 328 kts | 336° |
| 2026-05-04 19:09 | 53.94727 | 9.39904 | 13217 ft | 329 kts | 336° |
| 2026-05-04 19:09 | 53.96886 | 9.38570 | 13554 ft | 331 kts | 336° |
| 2026-05-04 19:09 | 53.99050 | 9.37231 | 13859 ft | 332 kts | 336° |
| 2026-05-04 19:10 | 54.01238 | 9.35936 | 14155 ft | 335 kts | 342° |
| 2026-05-04 19:10 | 54.03573 | 9.35646 | 14477 ft | 342 kts | 2° |
| 2026-05-04 19:10 | 54.05855 | 9.36791 | 14805 ft | 348 kts | 24° |
| 2026-05-04 19:10 | 54.07844 | 9.39274 | 14991 ft | 359 kts | 44° |
| 2026-05-04 19:11 | 54.09304 | 9.42771 | 15023 ft | 365 kts | 59° |
| 2026-05-04 19:11 | 54.10442 | 9.46574 | 15019 ft | 365 kts | 63° |
| 2026-05-04 19:11 | 54.11535 | 9.50489 | 15007 ft | 365 kts | 64° |
| 2026-05-04 19:11 | 54.12613 | 9.54402 | 14991 ft | 360 kts | 64° |
| 2026-05-04 19:12 | 54.13646 | 9.58166 | 14269 ft | 348 kts | 64° |
| 2026-05-04 19:12 | 54.15678 | 9.65755 | 12043 ft | 350 kts | 71° |
| 2026-05-04 19:12 | 54.16023 | 9.69755 | 11464 ft | 333 kts | 94° |
| 2026-05-04 19:13 | 54.15514 | 9.73435 | 11177 ft | 312 kts | 116° |